Time;durP1;ratioP1;P1;durP2;ratioP2;P2;SDS_P1;SDS_P2;PMS_P1;PMS_P2;Temp;Humidity;BMP_temperature;BMP_pressure;BME280_temperature;BME280_humidity;BME280_pressure;Samples;Min_cycle;Max_cycle;Signal;HPM_P1;HPM_P2
2023/10/21 00:00:43;;;;;;;28.08;3.35;;;14.50;99.90;;;;;;5005169;28;20042;-67
2023/10/21 00:03:10;;;;;;;17.65;2.72;;;14.50;99.90;;;;;;5006912;28;20135;-68
2023/10/21 00:05:37;;;;;;;19.80;3.72;;;14.50;99.90;;;;;;5006750;28;20412;-67
2023/10/21 00:08:04;;;;;;;15.55;4.03;;;14.50;99.90;;;;;;4989197;28;20088;-68
2023/10/21 00:10:31;;;;;;;17.60;2.70;;;14.50;99.90;;;;;;5006789;28;20038;-68
2023/10/21 00:12:58;;;;;;;18.77;3.10;;;14.50;99.90;;;;;;5007952;28;20046;-68
2023/10/21 00:15:25;;;;;;;18.77;3.17;;;14.50;99.90;;;;;;5191431;22;20411;-68
2023/10/21 00:17:52;;;;;;;18.45;3.90;;;14.50;99.90;;;;;;5023097;28;20407;-68
2023/10/21 00:20:18;;;;;;;23.65;3.72;;;14.50;99.90;;;;;;5021240;28;20042;-68
2023/10/21 00:22:45;;;;;;;14.02;3.00;;;14.50;99.90;;;;;;5029876;28;20527;-68
2023/10/21 00:25:12;;;;;;;20.98;3.53;;;14.50;99.90;;;;;;5020252;28;20072;-68
2023/10/21 00:27:39;;;;;;;19.05;3.75;;;14.60;99.90;;;;;;5030376;28;20045;-68
2023/10/21 00:30:06;;;;;;;18.73;4.07;;;14.60;99.90;;;;;;5030073;28;20169;-67
2023/10/21 00:32:33;;;;;;;29.77;3.70;;;14.60;99.90;;;;;;5012204;28;20123;-68
2023/10/21 00:35:00;;;;;;;15.00;3.10;;;14.60;99.90;;;;;;4994393;28;20140;-67
2023/10/21 00:37:27;;;;;;;21.98;3.58;;;14.60;99.90;;;;;;5030437;28;20057;-67
2023/10/21 00:39:54;;;;;;;18.33;3.45;;;14.60;99.90;;;;;;5030524;28;20456;-69
2023/10/21 00:42:21;;;;;;;18.27;3.58;;;14.60;99.90;;;;;;5024859;28;20080;-68
2023/10/21 00:44:48;;;;;;;27.80;3.70;;;14.60;99.90;;;;;;5030457;28;20049;-70
2023/10/21 00:47:15;;;;;;;18.20;4.20;;;14.60;99.90;;;;;;5030496;28;20068;-69
2023/10/21 00:49:42;;;;;;;34.63;4.47;;;14.60;99.90;;;;;;5029362;28;20057;-67
2023/10/21 00:52:10;;;;;;;13.48;3.00;;;14.60;99.90;;;;;;5012527;28;20095;-68
2023/10/21 00:54:36;;;;;;;17.13;3.45;;;14.50;99.90;;;;;;5011439;28;20049;-68
2023/10/21 00:57:03;;;;;;;16.98;3.85;;;14.50;99.90;;;;;;5030768;28;20038;-68
2023/10/21 00:59:30;;;;;;;23.65;3.85;;;14.50;99.90;;;;;;5026869;28;20037;-68
2023/10/21 01:01:57;;;;;;;23.77;4.90;;;14.50;99.90;;;;;;5028927;28;20306;-69
2023/10/21 01:04:24;;;;;;;21.38;3.88;;;14.50;99.90;;;;;;5032814;28;20106;-69
2023/10/21 01:06:53;;;;;;;26.00;5.45;;;14.50;99.90;;;;;;5024689;28;20130;-66
2023/10/21 01:09:22;;;;;;;25.42;4.15;;;14.40;99.90;;;;;;5024366;28;20056;-68
2023/10/21 01:11:48;;;;;;;21.17;3.63;;;14.50;99.90;;;;;;5025844;28;20072;-68
2023/10/21 01:14:17;;;;;;;18.20;2.83;;;14.40;99.90;;;;;;5028680;28;20045;-67
2023/10/21 01:16:44;;;;;;;21.17;3.33;;;14.40;99.90;;;;;;5015201;28;20045;-68
2023/10/21 01:19:13;;;;;;;24.58;3.75;;;14.40;99.90;;;;;;5028512;28;20471;-69
2023/10/21 01:21:42;;;;;;;16.65;3.20;;;14.40;99.90;;;;;;4365532;28;10000944;-68
2023/10/21 01:24:08;;;;;;;22.55;4.80;;;14.40;99.90;;;;;;4999339;28;20261;-68
2023/10/21 01:26:36;;;;;;;29.75;3.83;;;14.40;99.90;;;;;;5028146;28;20053;-67
2023/10/21 01:29:09;;;;;;;20.75;3.35;;;14.40;99.90;;;;;;5028185;28;20053;-69
2023/10/21 01:31:36;;;;;;;25.80;3.95;;;14.40;99.90;;;;;;5019165;28;20038;-69
2023/10/21 01:34:03;;;;;;;21.23;4.30;;;14.40;99.90;;;;;;5029223;28;20046;-68
2023/10/21 01:36:30;;;;;;;16.88;2.53;;;14.30;99.90;;;;;;5027917;28;20049;-68
2023/10/21 01:38:57;;;;;;;22.05;4.07;;;14.30;99.90;;;;;;5029725;28;20091;-68
2023/10/21 01:41:23;;;;;;;20.00;3.90;;;14.30;99.90;;;;;;5023078;28;20044;-68
2023/10/21 01:43:50;;;;;;;14.05;3.63;;;14.30;99.90;;;;;;5028340;28;20050;-68
2023/10/21 01:46:17;;;;;;;23.40;3.70;;;14.30;99.90;;;;;;5027721;28;20045;-67
2023/10/21 01:48:44;;;;;;;18.23;2.72;;;14.30;99.90;;;;;;5028564;28;20049;-67
2023/10/21 01:51:12;;;;;;;24.55;3.13;;;14.30;99.90;;;;;;5010889;28;20045;-67
2023/10/21 01:53:39;;;;;;;19.58;3.65;;;14.20;99.90;;;;;;5026457;28;20045;-67
2023/10/21 01:56:06;;;;;;;29.58;4.22;;;14.20;99.90;;;;;;5026748;28;20046;-69
2023/10/21 01:58:32;;;;;;;17.80;3.30;;;14.30;99.90;;;;;;5029905;28;20103;-67
2023/10/21 02:01:06;;;;;;;18.92;2.40;;;14.20;99.90;;;;;;5027987;28;20049;-67
2023/10/21 02:03:33;;;;;;;;;;;14.20;99.90;;;;;;4995987;28;20566;-68
2023/10/21 02:06:07;;;;;;;10.05;2.42;;;14.30;99.90;;;;;;5020051;28;19927;-68
2023/10/21 02:08:34;;;;;;;16.38;2.92;;;14.30;99.90;;;;;;5023699;28;20492;-68
2023/10/21 02:11:02;;;;;;;13.18;2.83;;;14.30;99.90;;;;;;5022811;28;20042;-68
2023/10/21 02:13:29;;;;;;;16.27;4.30;;;14.30;99.90;;;;;;5023429;28;20080;-68
2023/10/21 02:15:55;;;;;;;14.82;3.55;;;14.30;99.90;;;;;;5024028;28;20049;-69
2023/10/21 02:18:22;;;;;;;17.33;2.95;;;14.30;99.90;;;;;;5025954;28;20054;-68
2023/10/21 02:20:49;;;;;;;16.45;2.80;;;14.30;99.90;;;;;;5023449;28;20046;-68
2023/10/21 02:23:16;;;;;;;13.63;2.63;;;14.30;99.90;;;;;;5027045;28;20053;-68
2023/10/21 02:25:43;;;;;;;15.23;2.95;;;14.30;99.90;;;;;;5025600;28;20108;-68
2023/10/21 02:28:10;;;;;;;10.63;1.77;;;14.40;99.90;;;;;;5022629;28;20049;-69
2023/10/21 02:30:36;;;;;;;11.82;1.58;;;14.40;99.90;;;;;;5027382;28;20049;-69
2023/10/21 02:33:03;;;;;;;14.38;2.78;;;14.40;99.90;;;;;;4998890;28;20045;-68
2023/10/21 02:35:34;;;;;;;16.05;2.17;;;14.40;99.90;;;;;;5022867;28;20045;-68
2023/10/21 02:38:01;;;;;;;16.70;2.67;;;14.40;99.90;;;;;;5028013;28;20282;-68
2023/10/21 02:40:27;;;;;;;10.60;2.10;;;14.30;99.90;;;;;;5010438;28;20370;-68
2023/10/21 02:42:55;;;;;;;8.15;1.90;;;14.30;99.90;;;;;;5028055;28;20566;-68
2023/10/21 02:45:22;;;;;;;8.35;1.70;;;14.30;99.90;;;;;;5008389;28;20061;-69
2023/10/21 02:47:50;;;;;;;7.50;1.73;;;14.30;99.90;;;;;;5011137;28;20045;-69
2023/10/21 02:50:17;;;;;;;17.50;2.75;;;14.30;99.90;;;;;;5028407;28;20079;-66
2023/10/21 02:52:44;;;;;;;7.75;1.50;;;14.20;99.90;;;;;;5020058;28;20034;-68
2023/10/21 02:55:11;;;;;;;9.80;2.58;;;14.20;99.90;;;;;;5015401;28;20053;-68
2023/10/21 02:57:38;;;;;;;14.30;2.28;;;14.20;99.90;;;;;;5024787;28;20496;-68
2023/10/21 03:00:10;;;;;;;10.38;1.80;;;14.20;99.90;;;;;;5027561;28;20103;-69
2023/10/21 03:02:38;;;;;;;7.90;1.58;;;14.20;99.90;;;;;;5019237;28;20089;-69
2023/10/21 03:05:05;;;;;;;13.98;2.60;;;14.10;99.90;;;;;;5028534;28;20052;-70
2023/10/21 03:07:32;;;;;;;7.68;2.00;;;14.10;99.90;;;;;;5028456;28;20053;-67
2023/10/21 03:09:59;;;;;;;10.10;1.70;;;14.10;99.90;;;;;;5025015;28;20450;-69
2023/10/21 03:12:26;;;;;;;16.48;2.72;;;14.10;99.90;;;;;;5014136;28;20226;-70
2023/10/21 03:14:54;;;;;;;14.77;2.05;;;14.00;99.90;;;;;;5025645;28;20136;-67
2023/10/21 03:17:21;;;;;;;10.43;2.13;;;14.00;99.90;;;;;;5008016;28;20546;-67
2023/10/21 03:19:48;;;;;;;9.32;1.55;;;14.00;99.90;;;;;;5013914;28;20057;-69
2023/10/21 03:22:15;;;;;;;7.05;1.25;;;13.90;99.90;;;;;;5001481;28;20053;-68
2023/10/21 03:24:42;;;;;;;9.15;1.35;;;14.00;99.90;;;;;;5020883;28;20053;-69
2023/10/21 03:27:09;;;;;;;12.00;1.77;;;14.00;99.90;;;;;;5027425;28;20042;-69
2023/10/21 03:29:35;;;;;;;10.32;2.10;;;14.00;99.90;;;;;;5022005;28;20073;-69
2023/10/21 03:32:03;;;;;;;7.80;1.73;;;13.90;99.90;;;;;;5007131;28;20061;-69
2023/10/21 03:34:31;;;;;;;9.50;1.67;;;13.90;99.90;;;;;;5024504;28;20096;-68
2023/10/21 03:37:00;;;;;;;5.22;0.82;;;13.80;99.90;;;;;;5005293;28;20054;-69
2023/10/21 03:39:27;;;;;;;8.55;0.93;;;13.80;99.90;;;;;;5028493;28;20115;-68
2023/10/21 03:41:54;;;;;;;6.65;1.27;;;13.80;99.90;;;;;;5033094;28;20284;-68
2023/10/21 03:44:21;;;;;;;4.25;0.90;;;13.80;99.90;;;;;;5034233;28;20508;-71
2023/10/21 03:46:48;;;;;;;6.22;1.20;;;13.80;99.90;;;;;;5021383;28;20099;-67
2023/10/21 03:49:16;;;;;;;6.28;1.10;;;13.80;99.90;;;;;;5029975;28;20132;-69
2023/10/21 03:51:42;;;;;;;4.97;1.15;;;13.80;99.90;;;;;;5026429;28;20042;-69
2023/10/21 03:54:09;;;;;;;6.28;1.10;;;13.70;99.90;;;;;;5031750;28;20564;-69
2023/10/21 03:56:36;;;;;;;6.88;0.80;;;13.70;99.90;;;;;;5026222;28;20046;-69
2023/10/21 03:59:03;;;;;;;4.22;1.10;;;13.80;99.90;;;;;;5031620;28;20053;-69
2023/10/21 04:01:30;;;;;;;6.43;1.75;;;13.70;99.90;;;;;;5025527;28;20069;-69
2023/10/21 04:03:57;;;;;;;6.82;1.10;;;13.70;99.90;;;;;;5026921;28;20041;-68
2023/10/21 04:06:24;;;;;;;12.10;1.58;;;13.70;99.90;;;;;;5028251;28;20064;-67
2023/10/21 04:08:51;;;;;;;7.32;1.20;;;13.60;99.90;;;;;;5030563;28;20484;-68
2023/10/21 04:11:20;;;;;;;4.35;0.98;;;13.60;99.90;;;;;;5012094;28;20144;-67
2023/10/21 04:13:46;;;;;;;3.65;0.93;;;13.70;99.90;;;;;;5030943;28;20041;-69
2023/10/21 04:16:13;;;;;;;6.43;1.92;;;13.70;99.90;;;;;;5030440;28;20504;-67
2023/10/21 04:18:40;;;;;;;4.43;0.88;;;13.70;99.90;;;;;;5030789;28;20412;-67
2023/10/21 04:21:07;;;;;;;4.20;1.42;;;13.70;99.90;;;;;;5012434;28;20415;-67
2023/10/21 04:23:34;;;;;;;8.15;1.20;;;13.60;99.90;;;;;;5030842;28;20052;-67
2023/10/21 04:26:03;;;;;;;3.78;1.25;;;13.60;99.90;;;;;;5030263;28;20053;-68
2023/10/21 04:28:30;;;;;;;6.00;1.02;;;13.60;99.90;;;;;;5013110;28;20488;-67
2023/10/21 04:30:57;;;;;;;13.38;1.10;;;13.60;99.90;;;;;;5030470;28;20057;-68
2023/10/21 04:33:24;;;;;;;5.43;1.10;;;13.60;99.90;;;;;;5019653;28;20046;-68
2023/10/21 04:35:51;;;;;;;9.02;2.35;;;13.60;99.90;;;;;;5007823;28;20041;-68
2023/10/21 04:38:18;;;;;;;2.78;0.95;;;13.60;99.90;;;;;;5030823;28;20057;-69
2023/10/21 04:40:45;;;;;;;6.07;1.17;;;13.60;99.90;;;;;;5029531;28;20095;-68
2023/10/21 04:43:12;;;;;;;11.35;1.33;;;13.60;99.90;;;;;;5029628;28;20087;-68
2023/10/21 04:45:39;;;;;;;5.85;1.33;;;13.70;99.90;;;;;;5028130;28;20287;-67
2023/10/21 04:48:06;;;;;;;10.38;2.03;;;13.70;99.90;;;;;;5031189;28;20057;-68
2023/10/21 04:50:33;;;;;;;4.90;0.80;;;13.70;99.90;;;;;;5031916;28;20045;-67
2023/10/21 04:53:00;;;;;;;4.90;0.93;;;13.70;99.90;;;;;;5013985;28;20073;-68
2023/10/21 04:55:28;;;;;;;3.25;0.55;;;13.80;99.90;;;;;;5024804;28;20103;-67
2023/10/21 04:57:54;;;;;;;4.78;0.70;;;13.80;99.90;;;;;;4999205;28;20038;-67
2023/10/21 05:00:21;;;;;;;3.65;0.60;;;13.80;99.90;;;;;;5027099;28;20057;-67
2023/10/21 05:02:48;;;;;;;2.95;0.80;;;13.80;99.90;;;;;;5020544;28;20129;-69
2023/10/21 05:05:15;;;;;;;6.40;0.90;;;13.90;99.90;;;;;;5027037;28;20041;-69
2023/10/21 05:07:42;;;;;;;5.25;1.02;;;13.90;99.90;;;;;;5029056;28;20099;-69
2023/10/21 05:10:08;;;;;;;6.13;2.47;;;13.90;99.90;;;;;;5020286;28;20057;-68
2023/10/21 05:12:35;;;;;;;6.68;0.90;;;13.90;99.90;;;;;;5028659;28;20492;-68
2023/10/21 05:15:03;;;;;;;11.38;1.90;;;13.90;99.90;;;;;;5029884;28;20053;-68
2023/10/21 05:17:30;;;;;;;6.57;1.25;;;13.90;99.90;;;;;;5027817;28;20037;-68
2023/10/21 05:19:57;;;;;;;6.57;1.13;;;13.90;99.90;;;;;;5029282;28;20052;-68
2023/10/21 05:22:24;;;;;;;7.53;1.20;;;13.90;99.90;;;;;;5010315;28;20050;-68
2023/10/21 05:24:50;;;;;;;2.92;0.75;;;13.90;99.90;;;;;;5029008;28;20055;-68
2023/10/21 05:27:17;;;;;;;1.55;0.45;;;13.90;99.90;;;;;;5025489;28;20088;-69
2023/10/21 05:29:44;;;;;;;2.53;0.57;;;13.90;99.90;;;;;;5011092;28;20587;-68
2023/10/21 05:32:11;;;;;;;3.65;0.75;;;13.90;99.90;;;;;;5026655;28;20136;-68
2023/10/21 05:34:39;;;;;;;2.30;0.57;;;13.80;99.90;;;;;;5027282;28;20056;-68
2023/10/21 05:37:06;;;;;;;3.35;0.75;;;13.90;99.90;;;;;;5025881;28;20502;-68
2023/10/21 05:39:33;;;;;;;1.25;0.60;;;13.90;99.90;;;;;;5020388;28;20095;-68
2023/10/21 05:42:00;;;;;;;5.50;0.98;;;13.90;99.90;;;;;;5012313;28;20087;-68
2023/10/21 05:44:27;;;;;;;4.28;0.70;;;13.90;99.90;;;;;;5003409;28;20517;-67
2023/10/21 05:47:14;;;;;;;3.88;0.80;;;13.90;99.90;;;;;;5018523;28;20050;-66
2023/10/21 05:49:40;;;;;;;8.98;1.23;;;14.00;99.90;;;;;;5028998;28;20049;-68
2023/10/21 05:52:07;;;;;;;5.95;0.60;;;13.90;99.90;;;;;;5022701;28;20111;-67
2023/10/21 05:54:34;;;;;;;3.22;0.50;;;13.90;99.90;;;;;;5029113;28;20050;-66
2023/10/21 05:57:02;;;;;;;1.33;0.47;;;13.90;99.90;;;;;;5020339;28;20496;-67
2023/10/21 05:59:29;;;;;;;0.70;0.45;;;13.90;99.90;;;;;;5024845;28;20050;-67
2023/10/21 06:01:56;;;;;;;2.30;0.63;;;13.80;99.90;;;;;;5021693;28;20045;-66
2023/10/21 06:04:23;;;;;;;3.67;0.68;;;13.80;99.90;;;;;;5028075;28;20053;-67
2023/10/21 06:06:54;;;;;;;1.88;0.80;;;13.80;99.90;;;;;;5028358;28;20049;-67
2023/10/21 06:09:24;;;;;;;2.30;0.50;;;13.80;99.90;;;;;;5017577;28;20107;-67
2023/10/21 06:11:51;;;;;;;5.43;1.05;;;13.80;99.90;;;;;;5028213;28;20089;-68
2023/10/21 06:14:18;;;;;;;2.35;0.50;;;13.70;99.90;;;;;;5027304;28;20038;-66
2023/10/21 06:16:45;;;;;;;3.30;0.50;;;13.70;99.90;;;;;;5028068;28;20111;-67
2023/10/21 06:19:12;;;;;;;1.85;0.40;;;13.70;99.90;;;;;;5032142;28;20072;-67
2023/10/21 06:21:40;;;;;;;0.77;0.60;;;13.70;99.90;;;;;;5029482;28;20192;-67
2023/10/21 06:24:09;;;;;;;2.28;0.60;;;13.70;99.90;;;;;;5032786;28;20041;-67
2023/10/21 06:26:37;;;;;;;2.80;0.50;;;13.70;99.90;;;;;;5030794;28;20049;-66
2023/10/21 06:29:04;;;;;;;3.08;0.40;;;13.70;99.90;;;;;;5011324;28;20038;-67
2023/10/21 06:31:31;;;;;;;3.72;0.40;;;13.70;99.90;;;;;;5018427;28;20277;-67
2023/10/21 06:34:02;;;;;;;1.55;0.60;;;13.70;99.90;;;;;;5003899;28;20049;-68
2023/10/21 06:36:29;;;;;;;1.40;0.45;;;13.70;99.90;;;;;;5019443;28;20553;-67
2023/10/21 06:38:55;;;;;;;1.58;0.50;;;13.70;99.90;;;;;;5010613;28;20075;-67
2023/10/21 06:41:23;;;;;;;1.02;0.50;;;13.70;99.90;;;;;;5026270;28;20049;-67
2023/10/21 06:43:51;;;;;;;3.38;0.45;;;13.70;99.90;;;;;;5028214;28;20049;-67
2023/10/21 06:46:18;;;;;;;2.20;0.60;;;13.70;99.90;;;;;;5027334;28;20108;-67
2023/10/21 06:48:45;;;;;;;3.72;0.70;;;13.60;99.90;;;;;;5022228;28;20049;-67
2023/10/21 06:51:13;;;;;;;3.22;0.50;;;13.60;99.90;;;;;;5026087;28;20064;-67
2023/10/21 06:53:40;;;;;;;6.95;1.48;;;13.50;99.90;;;;;;5031760;28;20284;-67
2023/10/21 06:56:11;;;;;;;2.63;0.77;;;13.50;99.90;;;;;;5004290;28;20104;-67
2023/10/21 06:58:39;;;;;;;1.63;0.80;;;13.50;99.90;;;;;;5029121;28;20072;-67
2023/10/21 07:01:07;;;;;;;1.38;0.50;;;13.50;99.90;;;;;;5023981;28;20416;-68
2023/10/21 07:03:33;;;;;;;2.42;0.70;;;13.50;99.90;;;;;;5025559;28;20064;-74
2023/10/21 07:06:00;;;;;;;3.58;0.70;;;13.50;99.90;;;;;;5030188;28;20151;-67
2023/10/21 07:08:27;;;;;;;2.28;0.30;;;13.40;99.90;;;;;;5031110;28;20052;-68
2023/10/21 07:10:54;;;;;;;2.13;0.50;;;13.40;99.90;;;;;;5029385;28;20053;-68
2023/10/21 07:13:20;;;;;;;2.25;0.70;;;13.40;99.90;;;;;;5017520;28;20488;-68
2023/10/21 07:15:47;;;;;;;1.38;0.40;;;13.40;99.90;;;;;;5027049;28;20057;-68
2023/10/21 07:18:14;;;;;;;0.77;0.30;;;13.40;99.90;;;;;;5010866;28;20194;-67
2023/10/21 07:20:41;;;;;;;1.45;0.52;;;13.40;99.90;;;;;;5039884;28;20132;-68
2023/10/21 07:23:08;;;;;;;1.60;1.23;;;13.40;99.90;;;;;;4682921;28;10000252;-68
2023/10/21 07:25:36;;;;;;;0.30;0.25;;;13.50;99.90;;;;;;5024047;28;20054;-68
2023/10/21 07:28:04;;;;;;;3.90;0.60;;;13.50;99.90;;;;;;5005911;28;20054;-68
2023/10/21 07:30:31;;;;;;;3.90;0.52;;;13.50;99.90;;;;;;5028552;28;20791;-68
2023/10/21 07:33:00;;;;;;;1.33;0.38;;;13.50;99.90;;;;;;5023212;28;20049;-69
2023/10/21 07:35:27;;;;;;;3.13;0.28;;;13.50;99.90;;;;;;5020739;28;20693;-68
2023/10/21 07:37:54;;;;;;;2.30;0.60;;;13.50;99.90;;;;;;5008308;28;20053;-68
2023/10/21 07:40:23;;;;;;;3.10;1.08;;;13.50;99.90;;;;;;5024094;28;20045;-69
2023/10/21 07:42:50;;;;;;;5.70;1.60;;;13.50;99.90;;;;;;5020641;28;20493;-69
2023/10/21 07:45:17;;;;;;;2.55;0.30;;;13.50;99.90;;;;;;5029970;28;20098;-69
2023/10/21 07:47:44;;;;;;;4.55;0.50;;;13.40;99.90;;;;;;5013379;28;20667;-69
2023/10/21 07:50:13;;;;;;;4.15;1.00;;;13.40;99.90;;;;;;4999609;28;20050;-69
2023/10/21 07:52:40;;;;;;;4.65;1.00;;;13.40;99.90;;;;;;5020663;28;20057;-69
2023/10/21 07:55:07;;;;;;;4.13;1.08;;;13.40;99.90;;;;;;5024625;28;20053;-69
2023/10/21 07:57:34;;;;;;;2.05;0.80;;;13.40;99.90;;;;;;5023809;28;20119;-69
2023/10/21 08:00:03;;;;;;;3.45;1.00;;;13.40;99.90;;;;;;5005363;28;20056;-68
2023/10/21 08:02:30;;;;;;;1.00;0.30;;;13.50;99.90;;;;;;5027489;28;20049;-69
2023/10/21 08:04:57;;;;;;;0.90;0.40;;;13.50;99.90;;;;;;5029680;28;20069;-69
2023/10/21 08:07:24;;;;;;;5.15;0.60;;;13.50;99.90;;;;;;5024480;28;20068;-69
2023/10/21 08:09:51;;;;;;;2.10;0.75;;;13.50;99.90;;;;;;5019168;28;20100;-69
2023/10/21 08:12:18;;;;;;;10.80;1.50;;;13.50;99.90;;;;;;5024682;28;20057;-69
2023/10/21 08:14:45;;;;;;;4.38;1.02;;;13.60;99.90;;;;;;5026196;28;20049;-69
2023/10/21 08:17:12;;;;;;;0.47;0.25;;;13.60;99.90;;;;;;5024686;28;20053;-69
2023/10/21 08:19:39;;;;;;;1.27;0.55;;;13.60;99.90;;;;;;5007956;28;20076;-69
2023/10/21 08:22:06;;;;;;;1.02;0.60;;;13.60;99.90;;;;;;5015783;28;20432;-69
2023/10/21 08:24:33;;;;;;;0.63;0.30;;;13.50;99.90;;;;;;5023892;28;20041;-69
2023/10/21 08:27:02;;;;;;;1.42;0.45;;;13.60;99.90;;;;;;5031655;28;20045;-69
2023/10/21 08:29:30;;;;;;;4.13;0.60;;;13.60;99.90;;;;;;5027331;28;20067;-70
2023/10/21 08:31:56;;;;;;;2.22;0.50;;;13.70;99.90;;;;;;5030331;28;20072;-69
2023/10/21 08:34:23;;;;;;;2.53;0.43;;;13.70;99.90;;;;;;5027226;28;20046;-69
2023/10/21 08:36:50;;;;;;;2.03;0.45;;;13.70;99.90;;;;;;5034522;28;20047;-69
2023/10/21 08:39:17;;;;;;;2.63;0.50;;;13.70;99.90;;;;;;5029345;28;20099;-70
2023/10/21 08:41:43;;;;;;;1.08;0.50;;;13.70;99.90;;;;;;5020265;28;20048;-70
2023/10/21 08:44:11;;;;;;;0.82;0.35;;;13.70;99.90;;;;;;5014115;28;20049;-69
2023/10/21 08:46:38;;;;;;;1.08;0.60;;;13.70;99.90;;;;;;5011740;28;20059;-69
2023/10/21 08:49:05;;;;;;;1.85;0.30;;;13.80;99.90;;;;;;5028283;28;20050;-69
2023/10/21 08:51:35;;;;;;;1.92;0.47;;;13.80;99.90;;;;;;5009116;28;20048;-68
2023/10/21 08:54:05;;;;;;;1.60;0.40;;;13.80;99.90;;;;;;5012610;28;20069;-69
2023/10/21 08:56:35;;;;;;;2.17;0.50;;;13.80;99.90;;;;;;5008046;28;20049;-69
2023/10/21 08:59:02;;;;;;;2.53;0.73;;;13.90;99.90;;;;;;5028276;28;20545;-69
2023/10/21 09:01:29;;;;;;;2.30;0.60;;;14.00;99.90;;;;;;5031483;28;20045;-69
2023/10/21 09:03:56;;;;;;;2.38;0.68;;;14.00;99.90;;;;;;5031596;28;20052;-69
2023/10/21 09:06:24;;;;;;;1.65;0.50;;;14.20;99.90;;;;;;5028498;28;20056;-70
2023/10/21 09:08:51;;;;;;;1.10;0.30;;;14.20;99.90;;;;;;5027693;28;20046;-69
2023/10/21 09:11:20;;;;;;;1.17;0.30;;;14.20;99.90;;;;;;5027467;28;20095;-69
2023/10/21 09:13:48;;;;;;;3.17;0.50;;;14.30;99.90;;;;;;5011096;28;20484;-69
2023/10/21 09:16:23;;;;;;;0.88;0.38;;;14.40;99.90;;;;;;5023350;28;20058;-69
2023/10/21 09:19:04;;;;;;;1.02;0.45;;;14.40;99.90;;;;;;5026341;28;20038;-69
2023/10/21 09:21:43;;;;;;;0.73;0.32;;;14.40;99.90;;;;;;5005522;28;20091;-68
2023/10/21 09:24:23;;;;;;;2.83;0.60;;;14.40;99.90;;;;;;5001000;28;20061;-68
2023/10/21 09:26:50;;;;;;;4.05;0.55;;;14.40;99.90;;;;;;5028209;28;20087;-68
2023/10/21 09:29:19;;;;;;;1.80;0.30;;;14.40;99.90;;;;;;5030055;28;20049;-67
2023/10/21 09:31:51;;;;;;;2.58;0.40;;;14.40;99.90;;;;;;5029409;28;20128;-68
2023/10/21 09:34:34;;;;;;;3.70;0.40;;;14.40;99.90;;;;;;5030202;28;20044;-69
2023/10/21 09:37:03;;;;;;;0.77;0.30;;;14.50;99.90;;;;;;5023661;28;20053;-68
2023/10/21 09:39:36;;;;;;;1.05;0.40;;;14.50;99.90;;;;;;5012278;28;20553;-69
2023/10/21 09:42:05;;;;;;;2.47;1.02;;;14.50;99.90;;;;;;5013087;28;20045;-68
2023/10/21 09:44:34;;;;;;;2.17;0.38;;;14.50;99.90;;;;;;5030661;28;20049;-69
2023/10/21 09:47:04;;;;;;;1.27;0.52;;;14.50;99.90;;;;;;5025994;28;20044;-68
2023/10/21 09:49:35;;;;;;;2.17;0.80;;;14.70;99.90;;;;;;4995706;28;20135;-69
2023/10/21 09:52:10;;;;;;;3.50;0.43;;;14.60;99.90;;;;;;5020695;28;20060;-69
2023/10/21 09:55:03;;;;;;;1.73;0.43;;;14.70;99.90;;;;;;5029626;28;20081;-69
2023/10/21 09:57:30;;;;;;;1.57;0.50;;;14.80;99.90;;;;;;4998443;28;20123;-69
2023/10/21 09:59:58;;;;;;;0.95;0.50;;;14.80;99.90;;;;;;5004650;28;20763;-69
2023/10/21 10:02:25;;;;;;;0.75;0.40;;;14.80;99.90;;;;;;5005289;28;20046;-68
2023/10/21 10:04:53;;;;;;;4.43;0.50;;;14.80;99.90;;;;;;5010429;28;20053;-69
2023/10/21 10:07:20;;;;;;;2.25;0.50;;;14.90;99.90;;;;;;5011550;28;20386;-68
2023/10/21 10:10:11;;;;;;;2.22;0.90;;;14.90;99.90;;;;;;5014130;28;20077;-68
2023/10/21 10:12:39;;;;;;;2.22;0.45;;;14.90;99.90;;;;;;5025914;28;20057;-67
2023/10/21 10:15:28;;;;;;;2.08;0.80;;;14.90;99.90;;;;;;5029224;28;20566;-68
2023/10/21 10:17:55;;;;;;;1.55;0.38;;;14.90;99.90;;;;;;5026380;28;20068;-68
2023/10/21 10:20:24;;;;;;;1.95;0.77;;;14.90;99.90;;;;;;5026271;28;20049;-67
2023/10/21 10:23:02;;;;;;;1.83;0.60;;;14.90;99.90;;;;;;5009023;28;20171;-68
2023/10/21 10:25:33;;;;;;;5.32;0.77;;;14.90;99.90;;;;;;5023858;28;20080;-68
2023/10/21 10:28:04;;;;;;;4.60;0.80;;;14.90;99.90;;;;;;5026183;28;20069;-68
2023/10/21 10:30:32;;;;;;;3.42;0.90;;;15.00;99.90;;;;;;5028767;28;20096;-67
2023/10/21 10:33:06;;;;;;;3.13;0.75;;;15.00;99.90;;;;;;5028708;28;20056;-68
2023/10/21 10:35:39;;;;;;;3.60;0.60;;;15.10;99.90;;;;;;5019527;28;20054;-68
2023/10/21 10:38:20;;;;;;;5.28;0.95;;;15.20;99.90;;;;;;5027646;28;20140;-67
2023/10/21 10:40:47;;;;;;;1.83;0.73;;;15.30;99.90;;;;;;5005936;28;20069;-68
2023/10/21 10:43:15;;;;;;;5.95;1.20;;;15.30;99.90;;;;;;5009901;28;20056;-67
2023/10/21 10:45:42;;;;;;;6.20;1.33;;;15.30;99.90;;;;;;5010541;28;20042;-67
2023/10/21 10:48:10;;;;;;;5.55;1.48;;;15.20;99.90;;;;;;5010437;28;20136;-67
2023/10/21 10:50:37;;;;;;;6.95;1.70;;;15.30;99.90;;;;;;5025515;28;20400;-66
2023/10/21 10:53:17;;;;;;;5.65;1.15;;;15.40;99.90;;;;;;5022694;28;20048;-67
2023/10/21 10:55:48;;;;;;;12.90;3.42;;;15.50;99.90;;;;;;5027031;28;20045;-67
2023/10/21 10:58:18;;;;;;;7.50;1.63;;;15.70;99.90;;;;;;5005506;28;20076;-67
2023/10/21 11:00:46;;;;;;;5.97;1.48;;;15.80;99.90;;;;;;5009037;28;20041;-68
2023/10/21 11:03:24;;;;;;;7.78;2.00;;;16.00;99.90;;;;;;5027034;28;20064;-67
2023/10/21 11:05:52;;;;;;;6.68;1.08;;;16.10;99.90;;;;;;5032378;28;20142;-69
2023/10/21 11:08:19;;;;;;;3.42;1.08;;;16.20;99.90;;;;;;5025371;28;20054;-69
2023/10/21 11:10:46;;;;;;;4.35;1.02;;;16.10;99.90;;;;;;5015226;28;20112;-68
2023/10/21 11:13:12;;;;;;;5.35;1.23;;;15.90;99.90;;;;;;5021163;28;20045;-70
2023/10/21 11:15:44;;;;;;;5.72;1.10;;;15.90;99.90;;;;;;5028757;28;20534;-68
2023/10/21 11:18:15;;;;;;;4.47;1.23;;;15.70;99.90;;;;;;5024244;28;20104;-69
2023/10/21 11:20:48;;;;;;;4.65;1.05;;;15.60;99.90;;;;;;5004803;28;20107;-69
2023/10/21 11:23:19;;;;;;;3.22;0.75;;;15.50;99.90;;;;;;4996103;28;20483;-69
2023/10/21 11:25:56;;;;;;;10.73;2.38;;;15.50;99.90;;;;;;4654609;28;10000544;-70
2023/10/21 11:28:24;;;;;;;5.72;1.02;;;15.30;99.90;;;;;;4998759;28;20065;-69
2023/10/21 11:30:51;;;;;;;6.85;1.67;;;15.30;99.90;;;;;;5013107;28;20205;-69
2023/10/21 11:33:18;;;;;;;9.10;1.30;;;15.30;99.90;;;;;;4995337;28;20051;-69
2023/10/21 11:35:48;;;;;;;6.97;1.15;;;15.20;99.90;;;;;;4994148;28;20080;-70
2023/10/21 11:38:18;;;;;;;7.85;1.77;;;15.00;99.90;;;;;;5010707;28;20077;-68
2023/10/21 11:40:45;;;;;;;6.00;2.05;;;14.90;99.90;;;;;;5026188;28;20472;-68
2023/10/21 11:43:13;;;;;;;4.95;1.95;;;14.90;99.90;;;;;;5006786;28;20084;-69
2023/10/21 11:45:40;;;;;;;2.78;0.75;;;15.00;99.90;;;;;;5013008;28;20050;-70
2023/10/21 11:48:11;;;;;;;8.20;0.73;;;15.00;99.90;;;;;;5002260;28;20068;-70
2023/10/21 11:50:42;;;;;;;4.43;0.95;;;15.10;99.90;;;;;;5027675;28;20350;-70
2023/10/21 11:53:09;;;;;;;7.15;1.05;;;15.20;99.90;;;;;;5010181;28;20077;-69
2023/10/21 12:15:36;;;;;;;3.20;0.60;;;14.80;99.90;;;;;;5008992;28;20053;-68
2023/10/21 12:18:27;;;;;;;6.57;0.70;;;14.70;99.90;;;;;;5025099;28;20494;-69
2023/10/21 12:39:38;;;;;;;6.95;1.02;;;15.00;99.90;;;;;;5035490;28;20045;-68
2023/10/21 12:42:21;;;;;;;9.65;1.17;;;15.10;99.90;;;;;;5027689;28;20093;-68
2023/10/21 12:44:56;;;;;;;6.30;0.80;;;15.20;99.90;;;;;;5015310;28;20052;-67
2023/10/21 12:47:24;;;;;;;4.03;1.17;;;15.30;99.90;;;;;;5013879;28;20041;-68
2023/10/21 12:49:55;;;;;;;3.20;0.85;;;15.40;99.90;;;;;;5005085;28;20045;-67
2023/10/21 12:52:23;;;;;;;7.68;0.90;;;15.40;99.90;;;;;;5024595;28;20140;-67
2023/10/21 12:54:51;;;;;;;7.53;1.40;;;15.40;99.90;;;;;;5029515;28;20041;-67
2023/10/21 12:57:18;;;;;;;3.47;0.65;;;15.30;99.90;;;;;;5034595;28;20056;-66
2023/10/21 12:59:46;;;;;;;3.88;0.95;;;15.20;99.90;;;;;;5023475;28;20037;-67
2023/10/21 13:02:12;;;;;;;5.57;1.73;;;15.20;99.90;;;;;;5024685;28;20049;-67
2023/10/21 13:04:42;;;;;;;7.53;1.00;;;15.20;99.90;;;;;;5003261;28;20057;-68
2023/10/21 13:07:09;;;;;;;8.27;1.13;;;15.10;99.90;;;;;;5027918;28;20042;-68
2023/10/21 13:09:39;;;;;;;6.63;0.95;;;14.90;99.90;;;;;;5028132;28;20041;-69
2023/10/21 13:12:09;;;;;;;6.15;1.50;;;14.80;99.90;;;;;;5024876;28;20049;-69
2023/10/21 13:14:38;;;;;;;8.30;1.10;;;14.70;99.90;;;;;;5033927;28;20253;-68
2023/10/21 13:17:08;;;;;;;7.50;1.05;;;14.70;99.90;;;;;;5014050;28;20041;-68
2023/10/21 13:19:36;;;;;;;4.38;0.82;;;14.80;99.90;;;;;;4998461;28;20057;-68
2023/10/21 13:22:05;;;;;;;7.70;1.30;;;14.90;99.90;;;;;;5025021;28;20049;-69
2023/10/21 13:24:36;;;;;;;7.72;1.23;;;14.90;99.90;;;;;;5033555;28;20045;-69
2023/10/21 13:27:06;;;;;;;4.50;1.52;;;15.00;99.90;;;;;;5001766;28;20056;-69